Terminal Aerodrome Forecast
Issued by NWS Wilmington, OH

Current Version | Previous Version | Graphics & Text | Print | Product List | Glossary On
Versions: 1 2 3 4 5 6 7 8 9 10 11 12 13 14 15 16 17 18 19 20 21 22 23 24 25 26
668
FTUS41 KILN 181423 AAA
TAFCVG
TAF AMD
KCVG 181423Z 1814/1918 13006KT P6SM BKN020
     FM181700 13008KT P6SM FEW012 SCT250
     FM190700 18009KT P6SM OVC022
     FM190900 18008KT 3SM -SHRA BR OVC009
     FM191500 20013G22KT P6SM BKN022=

USA.gov is the U.S. government's official web portal to all federal, state and local government web resources and services.